createdAt,value
2019-05-18T00:00:57.744Z,19.61
2019-05-18T00:03:30.230Z,19.65
2019-05-18T00:06:01.654Z,19.53
2019-05-18T00:08:33.149Z,19.51
2019-05-18T00:11:04.644Z,19.48
2019-05-18T00:13:36.096Z,19.47
2019-05-18T00:16:07.508Z,19.46
2019-05-18T00:18:38.881Z,19.35
2019-05-18T00:21:10.317Z,19.38
2019-05-18T00:23:41.662Z,19.39
2019-05-18T00:26:12.909Z,19.34
2019-05-18T00:28:44.389Z,19.38
2019-05-18T00:31:15.887Z,19.28
2019-05-18T00:33:47.289Z,19.34
2019-05-18T00:36:18.662Z,19.38
2019-05-18T00:38:50.022Z,19.30
2019-05-18T00:41:21.808Z,19.33
2019-05-18T00:43:53.638Z,19.30
2019-05-18T00:46:24.976Z,19.28
2019-05-18T00:48:56.416Z,19.28
2019-05-18T00:51:29.128Z,19.23
2019-05-18T00:54:00.574Z,19.26
2019-05-18T00:56:32.433Z,19.25
2019-05-18T00:59:03.794Z,19.21
2019-05-18T01:01:35.240Z,19.16
2019-05-18T01:04:06.611Z,19.10
2019-05-18T01:06:38.084Z,19.13
2019-05-18T01:09:09.486Z,19.10
2019-05-18T01:11:40.963Z,19.09
2019-05-18T01:14:12.367Z,18.99
2019-05-18T01:16:43.948Z,19.00
2019-05-18T01:19:15.482Z,18.93
2019-05-18T01:21:46.933Z,18.90
2019-05-18T01:24:18.384Z,18.85
2019-05-18T01:26:49.728Z,18.85
2019-05-18T01:29:21.186Z,18.87
2019-05-18T01:31:53.710Z,18.84
2019-05-18T01:34:25.146Z,18.80
2019-05-18T01:36:57.622Z,18.78
2019-05-18T01:39:29.096Z,18.70
2019-05-18T01:42:00.466Z,18.68
2019-05-18T01:44:32.061Z,18.70
2019-05-18T01:47:03.502Z,18.72
2019-05-18T01:49:34.945Z,18.69
2019-05-18T01:52:06.592Z,18.63
2019-05-18T01:54:38.067Z,18.56
2019-05-18T01:57:09.573Z,18.61
2019-05-18T01:59:40.966Z,18.62
2019-05-18T02:02:12.460Z,18.56
2019-05-18T02:04:44.005Z,18.47
2019-05-18T02:07:16.491Z,18.51
2019-05-18T02:09:49.065Z,18.46
2019-05-18T02:12:20.532Z,18.43
2019-05-18T02:14:51.921Z,18.47
2019-05-18T02:17:23.382Z,18.48
2019-05-18T02:19:54.760Z,18.45
2019-05-18T02:22:26.273Z,18.40
2019-05-18T02:24:57.793Z,18.41
2019-05-18T02:27:29.344Z,18.33
2019-05-18T02:30:01.047Z,18.26
2019-05-18T02:32:32.639Z,18.28
2019-05-18T02:35:06.069Z,18.24
2019-05-18T02:37:37.540Z,18.27
2019-05-18T02:40:09.788Z,18.27
2019-05-18T02:42:42.306Z,18.18
2019-05-18T02:45:14.144Z,18.18
2019-05-18T02:47:45.602Z,18.16
2019-05-18T02:50:17.221Z,18.21
2019-05-18T02:52:48.863Z,18.29
2019-05-18T02:55:20.478Z,18.28
2019-05-18T02:57:51.942Z,18.25
2019-05-18T03:00:23.446Z,18.30
2019-05-18T03:02:54.985Z,18.35
2019-05-18T03:05:29.338Z,18.47
2019-05-18T03:08:00.901Z,18.44
2019-05-18T03:10:32.567Z,18.46
2019-05-18T03:13:05.443Z,18.47
2019-05-18T03:15:37.285Z,18.39
2019-05-18T03:18:08.820Z,18.35
2019-05-18T03:20:40.498Z,18.37
2019-05-18T03:23:12.015Z,18.31
2019-05-18T03:25:44.445Z,18.37
2019-05-18T03:28:16.091Z,18.34
2019-05-18T03:30:47.596Z,18.41
2019-05-18T03:33:18.973Z,18.40
2019-05-18T03:35:51.080Z,18.35
2019-05-18T03:38:22.589Z,18.26
2019-05-18T03:40:55.082Z,18.28
2019-05-18T03:43:26.514Z,18.36
2019-05-18T03:45:58.102Z,18.38
2019-05-18T03:48:29.623Z,18.24
2019-05-18T03:51:01.042Z,18.22
2019-05-18T03:53:32.572Z,18.20
2019-05-18T03:56:09.100Z,18.26
2019-05-18T03:58:40.763Z,18.32
2019-05-18T04:01:12.204Z,18.35
2019-05-18T04:03:43.755Z,18.33
2019-05-18T04:06:15.167Z,18.39
2019-05-18T04:08:46.804Z,18.47
2019-05-18T04:11:18.385Z,18.51
2019-05-18T04:13:49.857Z,18.53
2019-05-18T04:16:21.513Z,18.51
2019-05-18T04:18:53.190Z,18.62
2019-05-18T04:21:24.705Z,18.61
2019-05-18T04:23:56.274Z,18.57
2019-05-18T04:26:27.799Z,18.66
2019-05-18T04:28:59.240Z,18.68
2019-05-18T04:31:32.335Z,18.70
2019-05-18T04:34:03.807Z,18.75
2019-05-18T04:36:35.306Z,18.78
2019-05-18T04:39:07.362Z,18.86
2019-05-18T04:41:38.703Z,18.99
2019-05-18T04:44:10.300Z,18.93
2019-05-18T04:46:41.910Z,19.04
2019-05-18T04:49:13.394Z,19.10
2019-05-18T04:51:44.738Z,19.20
2019-05-18T04:54:16.190Z,19.22
2019-05-18T04:56:48.616Z,19.25
2019-05-18T04:59:20.140Z,19.24
2019-05-18T05:01:51.723Z,19.34
2019-05-18T05:04:23.062Z,19.45
2019-05-18T05:06:55.392Z,19.46
2019-05-18T05:09:26.636Z,19.48
2019-05-18T05:11:58.063Z,19.52
2019-05-18T05:14:29.469Z,19.63
2019-05-18T05:17:00.867Z,19.69
2019-05-18T05:19:32.392Z,19.84
2019-05-18T05:22:05.379Z,19.86
2019-05-18T05:24:36.903Z,19.90
2019-05-18T05:27:08.294Z,20.04
2019-05-18T05:29:39.719Z,20.11
2019-05-18T05:32:11.100Z,20.14
2019-05-18T05:34:43.369Z,20.18
2019-05-18T05:37:15.939Z,20.21
2019-05-18T05:39:47.296Z,20.27
2019-05-18T05:42:18.665Z,20.35
2019-05-18T05:44:50.188Z,20.37
2019-05-18T05:47:21.777Z,20.47
2019-05-18T05:49:53.260Z,20.58
2019-05-18T05:52:24.659Z,20.59
2019-05-18T05:54:56.206Z,20.63
2019-05-18T05:57:27.717Z,20.75
2019-05-18T05:59:59.150Z,20.90
2019-05-18T06:02:31.576Z,20.86
2019-05-18T06:05:03.173Z,20.91
2019-05-18T06:07:35.592Z,20.97
2019-05-18T06:10:07.323Z,21.05
2019-05-18T06:12:38.805Z,21.21
2019-05-18T06:15:11.150Z,21.28
2019-05-18T06:17:42.693Z,21.36
2019-05-18T06:20:14.158Z,21.49
2019-05-18T06:22:45.637Z,21.61
2019-05-18T06:25:18.103Z,21.61
2019-05-18T06:27:49.848Z,21.63
2019-05-18T06:30:21.604Z,21.67
2019-05-18T06:32:53.283Z,21.79
2019-05-18T06:35:24.862Z,21.78
2019-05-18T06:37:59.051Z,21.87
2019-05-18T06:40:32.152Z,22.00
2019-05-18T06:43:06.763Z,22.12
2019-05-18T06:45:42.561Z,22.16
2019-05-18T06:48:14.028Z,22.20
2019-05-18T06:50:45.874Z,22.23
2019-05-18T06:53:17.429Z,22.33
2019-05-18T06:55:49.426Z,22.43
2019-05-18T06:58:21.176Z,22.51
2019-05-18T07:00:52.961Z,22.64
2019-05-18T07:03:27.620Z,22.78
2019-05-18T07:05:59.115Z,22.85
2019-05-18T07:08:30.847Z,22.96
2019-05-18T07:11:02.664Z,23.17
2019-05-18T07:13:34.213Z,23.09
2019-05-18T07:16:05.823Z,23.33
2019-05-18T07:18:37.360Z,23.40
2019-05-18T07:21:21.343Z,23.35
2019-05-18T07:23:43.941Z,23.24
2019-05-18T07:26:15.444Z,23.41
2019-05-18T07:28:46.978Z,23.63
2019-05-18T07:31:18.641Z,23.79
2019-05-18T07:33:50.554Z,23.93
2019-05-18T07:36:22.228Z,24.06
2019-05-18T07:38:53.876Z,24.20
2019-05-18T07:41:25.335Z,24.20
2019-05-18T07:43:56.767Z,24.36
2019-05-18T07:46:28.215Z,24.45
2019-05-18T07:48:59.839Z,24.52
2019-05-18T07:51:37.020Z,24.58
2019-05-18T07:54:04.637Z,24.66
2019-05-18T07:56:37.120Z,24.63
2019-05-18T07:59:08.834Z,24.76
2019-05-18T08:01:40.401Z,24.72
2019-05-18T08:04:11.956Z,24.83
2019-05-18T08:06:44.754Z,24.91
2019-05-18T08:09:16.281Z,24.97
2019-05-18T08:11:49.110Z,24.98
2019-05-18T08:14:20.795Z,24.84
2019-05-18T08:16:53.402Z,24.98
2019-05-18T08:19:25.843Z,25.10
2019-05-18T08:21:57.551Z,25.34
2019-05-18T08:24:29.102Z,25.46
2019-05-18T08:27:02.304Z,25.47
2019-05-18T08:29:33.933Z,25.37
2019-05-18T08:32:05.483Z,25.34
2019-05-18T08:34:39.878Z,25.56
2019-05-18T08:37:11.639Z,25.46
2019-05-18T08:39:43.936Z,25.70
2019-05-18T08:42:15.483Z,25.65
2019-05-18T08:44:46.925Z,25.76
2019-05-18T08:47:18.560Z,25.87
2019-05-18T08:49:51.399Z,25.88
2019-05-18T08:52:23.027Z,25.72
2019-05-18T08:54:54.575Z,25.89
2019-05-18T08:57:27.025Z,25.89
2019-05-18T08:59:58.587Z,26.00
2019-05-18T09:02:31.015Z,26.12
2019-05-18T09:05:05.020Z,26.10
2019-05-18T09:07:36.752Z,26.13
2019-05-18T09:10:08.822Z,26.26
2019-05-18T09:12:40.849Z,26.18
2019-05-18T09:15:13.993Z,26.34
2019-05-18T09:17:46.003Z,26.13
2019-05-18T09:20:18.132Z,26.03
2019-05-18T09:22:49.692Z,26.26
2019-05-18T09:25:21.530Z,26.43
2019-05-18T09:27:53.059Z,26.39
2019-05-18T09:30:24.733Z,26.35
2019-05-18T09:32:59.195Z,26.19
2019-05-18T09:35:30.836Z,26.21
2019-05-18T09:38:02.588Z,26.41
2019-05-18T09:40:34.230Z,26.33
2019-05-18T09:43:06.041Z,26.40
2019-05-18T09:45:37.724Z,26.45
2019-05-18T09:48:09.579Z,26.54
2019-05-18T09:50:42.575Z,26.56
2019-05-18T09:53:14.028Z,26.43
2019-05-18T09:55:46.597Z,26.52
2019-05-18T09:58:20.066Z,26.63
2019-05-18T10:00:51.570Z,26.81
2019-05-18T10:03:24.897Z,26.93
2019-05-18T10:05:56.647Z,26.98
2019-05-18T10:08:30.018Z,26.93
2019-05-18T10:11:03.120Z,27.09
2019-05-18T10:13:34.669Z,27.18
2019-05-18T10:16:06.284Z,27.25
2019-05-18T10:18:39.336Z,27.29
2019-05-18T10:21:11.180Z,26.86
2019-05-18T10:23:42.668Z,26.86
2019-05-18T10:26:14.212Z,27.01
2019-05-18T10:28:46.517Z,27.04
2019-05-18T10:31:18.160Z,27.04
2019-05-18T10:33:49.670Z,27.29
2019-05-18T10:36:21.174Z,27.34
2019-05-18T10:38:53.657Z,27.26
2019-05-18T10:41:25.299Z,27.15
2019-05-18T10:43:56.559Z,27.12
2019-05-18T10:46:27.962Z,26.88
2019-05-18T10:49:01.309Z,26.83
2019-05-18T10:51:32.798Z,26.87
2019-05-18T10:54:04.294Z,27.11
2019-05-18T10:56:35.899Z,27.14
2019-05-18T10:59:07.409Z,27.08
2019-05-18T11:01:39.131Z,27.08
2019-05-18T11:04:11.020Z,27.30
2019-05-18T11:06:42.725Z,27.25
2019-05-18T11:09:14.354Z,27.23
2019-05-18T11:11:46.985Z,27.11
2019-05-18T11:14:19.022Z,26.87
2019-05-18T11:16:51.750Z,26.80
2019-05-18T11:19:23.235Z,26.98
2019-05-18T11:21:54.755Z,27.12
2019-05-18T11:24:26.294Z,27.16
2019-05-18T11:26:57.772Z,27.32
2019-05-18T11:29:29.193Z,27.49
2019-05-18T11:32:00.732Z,27.46
2019-05-18T11:34:32.259Z,27.46
2019-05-18T11:37:04.056Z,27.60
2019-05-18T11:39:35.652Z,27.73
2019-05-18T11:42:07.388Z,27.75
2019-05-18T11:44:38.941Z,27.92
2019-05-18T11:47:11.448Z,27.98
2019-05-18T11:49:43.968Z,27.98
2019-05-18T11:52:15.517Z,27.99
2019-05-18T11:54:47.046Z,28.22
2019-05-18T11:57:18.702Z,27.88
2019-05-18T11:59:50.592Z,27.59
2019-05-18T12:02:22.309Z,27.50
2019-05-18T12:04:53.998Z,27.60
2019-05-18T12:07:27.146Z,27.71
2019-05-18T12:09:59.066Z,27.54
2019-05-18T12:12:31.589Z,27.68
2019-05-18T12:15:03.489Z,27.75
2019-05-18T12:17:35.184Z,27.88
2019-05-18T12:20:08.142Z,27.87
2019-05-18T12:22:40.061Z,27.84
2019-05-18T12:25:13.165Z,27.77
2019-05-18T12:27:44.732Z,27.87
2019-05-18T12:30:16.751Z,27.89
2019-05-18T12:32:48.818Z,27.83
2019-05-18T12:35:22.160Z,27.79
2019-05-18T12:37:53.959Z,27.66
2019-05-18T12:40:25.664Z,27.49
2019-05-18T12:42:57.260Z,27.45
2019-05-18T12:45:28.933Z,27.42
2019-05-18T12:48:01.040Z,27.39
2019-05-18T12:50:32.599Z,27.27
2019-05-18T12:53:04.166Z,27.20
2019-05-18T12:55:35.699Z,27.15
2019-05-18T12:58:07.225Z,27.12
2019-05-18T13:00:40.012Z,27.21
2019-05-18T13:03:11.515Z,27.25
2019-05-18T13:05:43.267Z,27.38
2019-05-18T13:08:14.829Z,27.34
2019-05-18T13:10:47.292Z,27.34
2019-05-18T13:13:18.752Z,27.16
2019-05-18T13:15:50.338Z,27.10
2019-05-18T13:18:22.989Z,27.39
2019-05-18T13:20:54.419Z,27.33
2019-05-18T13:23:26.010Z,27.47
2019-05-18T13:25:57.407Z,27.68
2019-05-18T13:28:30.448Z,27.70
2019-05-18T13:31:02.731Z,27.70
2019-05-18T13:33:34.383Z,27.77
2019-05-18T13:36:06.109Z,27.73
2019-05-18T13:38:41.916Z,27.63
2019-05-18T13:41:14.070Z,27.61
2019-05-18T13:43:46.452Z,27.61
2019-05-18T13:46:17.978Z,27.70
2019-05-18T13:48:49.506Z,27.58
2019-05-18T13:51:21.063Z,27.43
2019-05-18T13:53:52.431Z,27.45
2019-05-18T13:56:25.025Z,27.53
2019-05-18T13:58:57.573Z,27.52
2019-05-18T14:01:29.247Z,27.48
2019-05-18T14:04:00.940Z,27.45
2019-05-18T14:06:32.478Z,27.60
2019-05-18T14:09:04.731Z,27.73
2019-05-18T14:11:36.152Z,27.65
2019-05-18T14:14:07.718Z,27.49
2019-05-18T14:16:39.417Z,27.56
2019-05-18T14:19:11.021Z,27.56
2019-05-18T14:21:42.551Z,27.47
2019-05-18T14:24:16.706Z,27.47
2019-05-18T14:26:48.224Z,27.45
2019-05-18T14:29:20.180Z,27.57
2019-05-18T14:31:54.744Z,27.57
2019-05-18T14:34:26.352Z,27.73
2019-05-18T14:36:57.947Z,27.70
2019-05-18T14:39:29.476Z,27.77
2019-05-18T14:42:01.034Z,27.73
2019-05-18T14:44:33.749Z,27.80
2019-05-18T14:47:05.398Z,27.76
2019-05-18T14:49:36.966Z,27.76
2019-05-18T14:52:11.955Z,28.02
2019-05-18T14:54:42.121Z,28.28
2019-05-18T14:57:13.694Z,28.46
2019-05-18T14:59:45.124Z,28.64
2019-05-18T15:02:16.518Z,28.47
2019-05-18T15:04:47.999Z,27.88
2019-05-18T15:07:19.801Z,27.36
2019-05-18T15:09:51.339Z,27.62
2019-05-18T15:12:22.784Z,28.34
2019-05-18T15:14:54.323Z,28.51
2019-05-18T15:17:25.657Z,28.43
2019-05-18T15:19:57.462Z,28.52
2019-05-18T15:22:30.233Z,28.38
2019-05-18T15:25:01.744Z,27.88
2019-05-18T15:27:33.405Z,27.98
2019-05-18T15:30:09.264Z,27.66
2019-05-18T15:32:40.786Z,27.00
2019-05-18T15:35:12.332Z,26.85
2019-05-18T15:37:43.997Z,26.73
2019-05-18T15:40:15.864Z,26.66
2019-05-18T15:42:47.360Z,26.51
2019-05-18T15:45:19.081Z,26.52
2019-05-18T15:47:50.932Z,26.43
2019-05-18T15:50:24.610Z,26.38
2019-05-18T15:52:56.428Z,26.30
2019-05-18T15:55:29.697Z,26.23
2019-05-18T15:58:01.722Z,26.16
2019-05-18T16:00:33.307Z,26.07
2019-05-18T16:03:06.213Z,25.98
2019-05-18T16:05:37.896Z,25.90
2019-05-18T16:08:09.849Z,25.88
2019-05-18T16:10:41.621Z,25.80
2019-05-18T16:13:13.170Z,25.73
2019-05-18T16:15:44.987Z,25.69
2019-05-18T16:18:16.548Z,25.63
2019-05-18T16:20:49.062Z,25.59
2019-05-18T16:23:20.790Z,25.54
2019-05-18T16:25:52.445Z,25.53
2019-05-18T16:28:24.197Z,25.46
2019-05-18T16:30:55.873Z,25.44
2019-05-18T16:33:28.263Z,25.42
2019-05-18T16:35:59.759Z,25.34
2019-05-18T16:38:31.353Z,25.32
2019-05-18T16:41:05.057Z,25.24
2019-05-18T16:43:36.717Z,25.23
2019-05-18T16:46:09.808Z,25.22
2019-05-18T16:48:41.365Z,25.18
2019-05-18T16:51:12.863Z,25.14
2019-05-18T16:53:47.995Z,25.06
2019-05-18T16:56:18.749Z,24.96
2019-05-18T16:58:50.413Z,24.94
2019-05-18T17:01:21.813Z,24.92
2019-05-18T17:03:53.493Z,24.88
2019-05-18T17:06:24.972Z,24.81
2019-05-18T17:08:57.589Z,24.78
2019-05-18T17:11:29.217Z,24.73
2019-05-18T17:14:01.234Z,24.75
2019-05-18T17:16:32.694Z,24.70
2019-05-18T17:19:04.288Z,24.63
2019-05-18T17:21:35.817Z,24.61
2019-05-18T17:24:07.609Z,24.61
2019-05-18T17:26:51.562Z,24.56
2019-05-18T17:29:12.380Z,24.47
2019-05-18T17:31:44.009Z,24.45
2019-05-18T17:34:15.679Z,24.37
2019-05-18T17:36:47.345Z,24.36
2019-05-18T17:39:19.159Z,24.29
2019-05-18T17:41:50.798Z,24.24
2019-05-18T17:44:22.301Z,24.18
2019-05-18T17:46:53.976Z,24.16
2019-05-18T17:49:27.028Z,24.13
2019-05-18T17:52:02.633Z,24.10
2019-05-18T17:54:34.200Z,24.06
2019-05-18T17:57:08.931Z,24.00
2019-05-18T17:59:39.207Z,23.98
2019-05-18T18:02:10.778Z,23.93
2019-05-18T18:04:42.680Z,23.84
2019-05-18T18:07:14.142Z,23.85
2019-05-18T18:09:46.082Z,23.78
2019-05-18T18:12:18.782Z,23.80
2019-05-18T18:14:51.563Z,23.76
2019-05-18T18:17:23.416Z,23.64
2019-05-18T18:19:55.023Z,23.56
2019-05-18T18:22:31.866Z,23.52
2019-05-18T18:25:06.296Z,23.46
2019-05-18T18:27:38.714Z,23.43
2019-05-18T18:30:11.035Z,23.39
2019-05-18T18:32:43.304Z,23.26
2019-05-18T18:35:15.139Z,23.21
2019-05-18T18:37:46.678Z,23.15
2019-05-18T18:40:18.671Z,23.09
2019-05-18T18:42:50.524Z,23.02
2019-05-18T18:45:22.115Z,23.00
2019-05-18T18:47:55.252Z,22.92
2019-05-18T18:50:26.821Z,22.87
2019-05-18T18:52:58.331Z,22.80
2019-05-18T18:55:29.761Z,22.77
2019-05-18T18:58:01.464Z,22.69
2019-05-18T19:00:33.293Z,22.64
2019-05-18T19:03:05.032Z,22.67
2019-05-18T19:05:37.850Z,22.60
2019-05-18T19:08:09.448Z,22.48
2019-05-18T19:10:41.229Z,22.42
2019-05-18T19:13:12.928Z,22.37
2019-05-18T19:15:44.695Z,22.34
2019-05-18T19:18:16.378Z,22.28
2019-05-18T19:20:47.759Z,22.28
2019-05-18T19:23:19.312Z,22.20
2019-05-18T19:25:50.893Z,22.11
2019-05-18T19:28:22.636Z,22.09
2019-05-18T19:30:54.284Z,22.04
2019-05-18T19:33:26.753Z,22.08
2019-05-18T19:35:58.435Z,21.98
2019-05-18T19:38:30.334Z,21.92
2019-05-18T19:41:02.263Z,21.87
2019-05-18T19:43:34.953Z,21.79
2019-05-18T19:46:06.648Z,21.76
2019-05-18T19:48:38.416Z,21.76
2019-05-18T19:51:10.193Z,21.73
2019-05-18T19:53:41.688Z,21.64
2019-05-18T19:56:13.306Z,21.64
2019-05-18T19:58:44.999Z,21.61
2019-05-18T20:01:16.744Z,21.55
2019-05-18T20:03:49.358Z,21.50
2019-05-18T20:06:20.826Z,21.47
2019-05-18T20:08:52.281Z,21.42
2019-05-18T20:11:24.322Z,21.42
2019-05-18T20:13:55.893Z,21.35
2019-05-18T20:16:27.443Z,21.30
2019-05-18T20:18:59.625Z,21.26
2019-05-18T20:21:31.123Z,21.22
2019-05-18T20:24:02.796Z,21.17
2019-05-18T20:26:35.082Z,21.13
2019-05-18T20:29:06.699Z,21.16
2019-05-18T20:31:39.160Z,21.10
2019-05-18T20:34:10.857Z,21.04
2019-05-18T20:36:42.389Z,21.06
2019-05-18T20:39:13.840Z,20.95
2019-05-18T20:41:45.451Z,20.91
2019-05-18T20:44:17.066Z,20.88
2019-05-18T20:46:48.627Z,20.79
2019-05-18T20:49:20.412Z,20.76
2019-05-18T20:51:51.806Z,20.72
2019-05-18T20:54:23.517Z,20.73
2019-05-18T20:56:56.397Z,20.59
2019-05-18T20:59:27.916Z,20.53
2019-05-18T21:01:59.454Z,20.48
2019-05-18T21:04:30.919Z,20.43
2019-05-18T21:07:02.621Z,20.41
2019-05-18T21:09:34.089Z,20.36
2019-05-18T21:12:05.701Z,20.35
2019-05-18T21:14:37.250Z,20.26
2019-05-18T21:17:08.778Z,20.20
2019-05-18T21:19:40.443Z,20.13
2019-05-18T21:22:12.050Z,20.18
2019-05-18T21:24:44.675Z,20.08
2019-05-18T21:27:16.168Z,19.98
2019-05-18T21:29:48.135Z,19.96
2019-05-18T21:32:19.519Z,19.88
2019-05-18T21:34:51.091Z,19.84
2019-05-18T21:37:22.621Z,19.89
2019-05-18T21:39:54.007Z,19.91
2019-05-18T21:42:25.485Z,19.81
2019-05-18T21:44:57.184Z,19.82
2019-05-18T21:47:28.733Z,19.79
2019-05-18T21:50:00.425Z,19.77
2019-05-18T21:52:32.018Z,19.74
2019-05-18T21:55:03.592Z,19.68
2019-05-18T21:57:35.190Z,19.71
2019-05-18T22:00:08.914Z,19.66
2019-05-18T22:02:42.058Z,19.61
2019-05-18T22:05:13.650Z,19.59
2019-05-18T22:07:45.183Z,19.54
2019-05-18T22:10:25.512Z,19.51
2019-05-18T22:12:50.154Z,19.52
2019-05-18T22:15:21.654Z,19.55
2019-05-18T22:18:05.560Z,19.48
2019-05-18T22:20:43.296Z,19.36
2019-05-18T22:23:11.104Z,19.28
2019-05-18T22:25:42.619Z,19.29
2019-05-18T22:28:14.136Z,19.27
2019-05-18T22:30:45.784Z,19.19
2019-05-18T22:33:17.504Z,19.25
2019-05-18T22:35:49.357Z,19.20
2019-05-18T22:38:20.773Z,19.17
2019-05-18T22:40:52.224Z,19.17
2019-05-18T22:43:24.317Z,19.20
2019-05-18T22:45:56.032Z,19.20
2019-05-18T22:48:40.301Z,19.20
2019-05-18T22:51:00.659Z,19.17
2019-05-18T22:53:32.147Z,19.14
2019-05-18T22:56:03.703Z,19.18
2019-05-18T22:58:35.208Z,19.06
2019-05-18T23:01:06.638Z,18.96
2019-05-18T23:03:38.020Z,18.88
2019-05-18T23:06:09.565Z,18.84
2019-05-18T23:08:41.389Z,18.79
2019-05-18T23:11:12.936Z,18.75
2019-05-18T23:13:44.563Z,18.73
2019-05-18T23:16:16.109Z,18.58
2019-05-18T23:18:56.486Z,18.52
2019-05-18T23:21:22.616Z,18.55
2019-05-18T23:23:54.119Z,18.61
2019-05-18T23:26:25.574Z,18.55
2019-05-18T23:28:57.109Z,18.51
2019-05-18T23:31:28.535Z,18.44
2019-05-18T23:34:00.249Z,18.41
2019-05-18T23:36:31.819Z,18.42
2019-05-18T23:39:05.002Z,18.43
2019-05-18T23:41:36.545Z,18.34
2019-05-18T23:44:07.961Z,18.26
2019-05-18T23:46:39.240Z,18.26
2019-05-18T23:49:11.414Z,18.24
2019-05-18T23:51:42.880Z,18.08
2019-05-18T23:54:14.435Z,18.11
2019-05-18T23:56:45.827Z,18.19
2019-05-18T23:59:17.244Z,18.09
